Terminal Aerodrome Forecast
Issued by NWS

Home | Current Version | Previous Version | Text Only | Print | Product List | Glossary On
Versions: 1 2 3 4 5 6 7 8 9 10 11 12 13 14
000
FTUS42 TJSJ 252300 RRA
TAFJPS
TAF
TJPS 252339Z 2600/2624 07006KT P6SM FEW020 BKN050 BKN090
     FM260300 06003KT P6SM FEW030 SCT090
     FM261400 12012G19KT P6SM SCT030 SCT050
      AMD NOT SKED TIL 260300=

USA.gov is the U.S. government's official web portal to all federal, state and local government web resources and services.